sensor_id;sensor_type;location;lat;lon;timestamp;pressure;altitude;pressure_sealevel;temperature;humidity
29825;BME280;16713;52.916;12.834;2023-03-03T00:01:07;101773.84;;;0.67;76.84
29825;BME280;16713;52.916;12.834;2023-03-03T00:03:33;101767.63;;;0.67;76.62
29825;BME280;16713;52.916;12.834;2023-03-03T00:06:01;101766.59;;;0.68;76.96
29825;BME280;16713;52.916;12.834;2023-03-03T00:08:28;101763.66;;;0.74;76.08
29825;BME280;16713;52.916;12.834;2023-03-03T00:10:54;101763.13;;;0.77;76.22
29825;BME280;16713;52.916;12.834;2023-03-03T00:13:22;101751.94;;;0.58;76.31
29825;BME280;16713;52.916;12.834;2023-03-03T00:15:49;101757.75;;;0.82;76.05
29825;BME280;16713;52.916;12.834;2023-03-03T00:18:25;101760.16;;;0.79;76.33
29825;BME280;16713;52.916;12.834;2023-03-03T00:20:55;101764.66;;;0.58;76.59
29825;BME280;16713;52.916;12.834;2023-03-03T00:23:35;101770.56;;;0.60;76.31
29825;BME280;16713;52.916;12.834;2023-03-03T00:26:02;101767.00;;;0.44;76.54
29825;BME280;16713;52.916;12.834;2023-03-03T00:28:45;101765.19;;;0.55;77.06
29825;BME280;16713;52.916;12.834;2023-03-03T00:31:16;101763.81;;;0.57;76.41
29825;BME280;16713;52.916;12.834;2023-03-03T00:33:53;101763.63;;;0.69;76.38
29825;BME280;16713;52.916;12.834;2023-03-03T00:36:36;101762.56;;;0.75;76.08
29825;BME280;16713;52.916;12.834;2023-03-03T00:39:21;101757.28;;;0.43;76.53
29825;BME280;16713;52.916;12.834;2023-03-03T00:41:51;101754.66;;;0.53;76.73
29825;BME280;16713;52.916;12.834;2023-03-03T00:49:47;101730.50;;;0.32;77.97
29825;BME280;16713;52.916;12.834;2023-03-03T00:52:15;101732.34;;;0.26;78.06
29825;BME280;16713;52.916;12.834;2023-03-03T00:54:42;101730.19;;;0.28;77.95
29825;BME280;16713;52.916;12.834;2023-03-03T00:57:09;101739.03;;;0.19;78.93
29825;BME280;16713;52.916;12.834;2023-03-03T00:59:37;101743.00;;;0.48;76.85
29825;BME280;16713;52.916;12.834;2023-03-03T01:02:04;101747.63;;;0.57;77.33
29825;BME280;16713;52.916;12.834;2023-03-03T01:04:31;101746.56;;;0.53;77.29
29825;BME280;16713;52.916;12.834;2023-03-03T01:06:57;101735.94;;;0.37;76.98
29825;BME280;16713;52.916;12.834;2023-03-03T01:09:23;101728.94;;;0.46;77.67
29825;BME280;16713;52.916;12.834;2023-03-03T01:11:50;101725.47;;;0.50;77.10
29825;BME280;16713;52.916;12.834;2023-03-03T01:14:16;101724.09;;;0.43;77.20
29825;BME280;16713;52.916;12.834;2023-03-03T01:16:43;101719.19;;;0.35;76.88
29825;BME280;16713;52.916;12.834;2023-03-03T01:19:09;101711.03;;;0.25;76.87
29825;BME280;16713;52.916;12.834;2023-03-03T01:21:36;101703.94;;;0.14;77.22
29825;BME280;16713;52.916;12.834;2023-03-03T01:24:02;101710.22;;;0.24;77.42
29825;BME280;16713;52.916;12.834;2023-03-03T01:26:28;101714.25;;;0.22;77.54
29825;BME280;16713;52.916;12.834;2023-03-03T01:28:56;101707.09;;;0.47;76.78
29825;BME280;16713;52.916;12.834;2023-03-03T01:31:22;101703.78;;;0.30;75.77
29825;BME280;16713;52.916;12.834;2023-03-03T01:33:49;101697.00;;;0.23;76.97
29825;BME280;16713;52.916;12.834;2023-03-03T01:36:15;101688.44;;;0.41;76.50
29825;BME280;16713;52.916;12.834;2023-03-03T01:38:47;101690.28;;;0.30;76.66
29825;BME280;16713;52.916;12.834;2023-03-03T01:41:14;101693.34;;;-0.03;77.80
29825;BME280;16713;52.916;12.834;2023-03-03T01:43:44;101697.44;;;0.05;78.62
29825;BME280;16713;52.916;12.834;2023-03-03T01:48:50;101688.63;;;0.19;77.67
29825;BME280;16713;52.916;12.834;2023-03-03T01:51:20;101691.84;;;0.16;77.55
29825;BME280;16713;52.916;12.834;2023-03-03T01:53:50;101691.38;;;0.29;78.08
29825;BME280;16713;52.916;12.834;2023-03-03T01:56:16;101694.97;;;0.45;77.07
29825;BME280;16713;52.916;12.834;2023-03-03T01:58:44;101684.50;;;0.12;77.65
29825;BME280;16713;52.916;12.834;2023-03-03T02:01:16;101693.34;;;-0.03;78.09
29825;BME280;16713;52.916;12.834;2023-03-03T02:03:44;101684.28;;;0.18;77.90
29825;BME280;16713;52.916;12.834;2023-03-03T02:06:14;101696.66;;;0.09;78.20
29825;BME280;16713;52.916;12.834;2023-03-03T02:08:51;101698.53;;;0.09;77.79
29825;BME280;16713;52.916;12.834;2023-03-03T02:11:20;101699.72;;;0.28;77.76
29825;BME280;16713;52.916;12.834;2023-03-03T02:13:47;101689.06;;;0.53;76.78
29825;BME280;16713;52.916;12.834;2023-03-03T02:16:13;101685.72;;;0.31;77.57
29825;BME280;16713;52.916;12.834;2023-03-03T02:18:40;101696.03;;;0.49;77.08
29825;BME280;16713;52.916;12.834;2023-03-03T02:21:10;101691.66;;;0.33;76.85
29825;BME280;16713;52.916;12.834;2023-03-03T02:26:23;101683.94;;;0.05;77.90
29825;BME280;16713;52.916;12.834;2023-03-03T02:28:51;101690.72;;;0.12;77.89
29825;BME280;16713;52.916;12.834;2023-03-03T02:31:18;101690.19;;;0.15;77.62
29825;BME280;16713;52.916;12.834;2023-03-03T02:33:46;101699.75;;;0.38;77.61
29825;BME280;16713;52.916;12.834;2023-03-03T02:36:14;101709.16;;;0.25;77.61
29825;BME280;16713;52.916;12.834;2023-03-03T02:46:17;101706.16;;;0.22;77.46
29825;BME280;16713;52.916;12.834;2023-03-03T02:48:44;101697.97;;;0.02;78.08
29825;BME280;16713;52.916;12.834;2023-03-03T02:51:10;101693.91;;;0.04;78.04
29825;BME280;16713;52.916;12.834;2023-03-03T02:53:37;101694.50;;;0.11;77.77
29825;BME280;16713;52.916;12.834;2023-03-03T02:56:03;101697.25;;;0.16;78.02
29825;BME280;16713;52.916;12.834;2023-03-03T02:58:30;101711.56;;;0.22;77.58
29825;BME280;16713;52.916;12.834;2023-03-03T03:00:56;101709.22;;;0.35;77.38
29825;BME280;16713;52.916;12.834;2023-03-03T03:03:23;101713.81;;;0.40;77.32
29825;BME280;16713;52.916;12.834;2023-03-03T03:05:49;101709.22;;;0.35;76.50
29825;BME280;16713;52.916;12.834;2023-03-03T03:08:16;101697.78;;;0.13;77.24
29825;BME280;16713;52.916;12.834;2023-03-03T03:10:42;101709.19;;;0.30;76.97
29825;BME280;16713;52.916;12.834;2023-03-03T03:13:08;101720.28;;;0.44;76.73
29825;BME280;16713;52.916;12.834;2023-03-03T03:15:35;101716.25;;;0.41;76.36
29825;BME280;16713;52.916;12.834;2023-03-03T03:18:01;101722.19;;;0.38;76.77
29825;BME280;16713;52.916;12.834;2023-03-03T03:20:28;101708.03;;;0.16;77.04
29825;BME280;16713;52.916;12.834;2023-03-03T03:22:54;101702.34;;;0.13;77.18
29825;BME280;16713;52.916;12.834;2023-03-03T03:25:20;101688.81;;;0.08;77.81
29825;BME280;16713;52.916;12.834;2023-03-03T03:27:47;101696.31;;;0.01;78.33
29825;BME280;16713;52.916;12.834;2023-03-03T03:30:13;101691.81;;;-0.30;78.80
29825;BME280;16713;52.916;12.834;2023-03-03T03:32:40;101693.47;;;-0.24;78.63
29825;BME280;16713;52.916;12.834;2023-03-03T03:35:06;101696.56;;;-0.01;78.51
29825;BME280;16713;52.916;12.834;2023-03-03T03:37:33;101689.56;;;-0.02;78.41
29825;BME280;16713;52.916;12.834;2023-03-03T03:39:59;101690.66;;;0.02;77.63
29825;BME280;16713;52.916;12.834;2023-03-03T03:42:25;101686.47;;;-0.20;78.20
29825;BME280;16713;52.916;12.834;2023-03-03T03:44:52;101686.72;;;0.15;77.18
29825;BME280;16713;52.916;12.834;2023-03-03T03:47:18;101684.38;;;-0.13;77.04
29825;BME280;16713;52.916;12.834;2023-03-03T03:49:44;101690.16;;;0.05;77.90
29825;BME280;16713;52.916;12.834;2023-03-03T03:52:11;101692.13;;;0.20;76.72
29825;BME280;16713;52.916;12.834;2023-03-03T03:54:37;101697.13;;;0.01;77.23
29825;BME280;16713;52.916;12.834;2023-03-03T03:57:03;101700.41;;;0.03;77.43
29825;BME280;16713;52.916;12.834;2023-03-03T03:59:30;101708.78;;;0.12;77.13
29825;BME280;16713;52.916;12.834;2023-03-03T04:01:56;101708.56;;;0.13;76.72
29825;BME280;16713;52.916;12.834;2023-03-03T04:04:22;101701.75;;;0.06;77.50
29825;BME280;16713;52.916;12.834;2023-03-03T04:06:49;101689.41;;;-0.22;78.23
29825;BME280;16713;52.916;12.834;2023-03-03T04:09:15;101684.66;;;-0.10;77.36
29825;BME280;16713;52.916;12.834;2023-03-03T04:11:41;101683.34;;;-0.02;77.25
29825;BME280;16713;52.916;12.834;2023-03-03T04:14:08;101685.66;;;0.21;77.80
29825;BME280;16713;52.916;12.834;2023-03-03T04:16:34;101686.38;;;0.06;77.30
29825;BME280;16713;52.916;12.834;2023-03-03T04:19:00;101683.75;;;0.16;76.94
29825;BME280;16713;52.916;12.834;2023-03-03T04:21:27;101678.22;;;-0.04;78.06
29825;BME280;16713;52.916;12.834;2023-03-03T04:23:53;101679.38;;;0.05;77.76
29825;BME280;16713;52.916;12.834;2023-03-03T04:26:19;101682.31;;;-0.01;77.71
29825;BME280;16713;52.916;12.834;2023-03-03T04:28:46;101671.94;;;-0.19;78.14
29825;BME280;16713;52.916;12.834;2023-03-03T04:31:12;101671.78;;;-0.39;78.66
29825;BME280;16713;52.916;12.834;2023-03-03T04:33:38;101668.69;;;-0.21;79.21
29825;BME280;16713;52.916;12.834;2023-03-03T04:36:05;101660.94;;;-0.13;79.21
29825;BME280;16713;52.916;12.834;2023-03-03T04:38:31;101663.44;;;0.04;78.20
29825;BME280;16713;52.916;12.834;2023-03-03T04:40:58;101663.44;;;-0.01;78.19
29825;BME280;16713;52.916;12.834;2023-03-03T04:43:24;101665.59;;;0.02;77.78
29825;BME280;16713;52.916;12.834;2023-03-03T04:45:50;101668.63;;;0.15;77.73
29825;BME280;16713;52.916;12.834;2023-03-03T04:48:17;101673.47;;;0.08;78.05
29825;BME280;16713;52.916;12.834;2023-03-03T04:50:43;101668.84;;;0.09;77.56
29825;BME280;16713;52.916;12.834;2023-03-03T04:53:09;101660.69;;;-0.06;77.71
29825;BME280;16713;52.916;12.834;2023-03-03T04:55:36;101656.59;;;-0.14;78.48
29825;BME280;16713;52.916;12.834;2023-03-03T04:58:03;101661.72;;;-0.17;78.26
29825;BME280;16713;52.916;12.834;2023-03-03T05:00:30;101656.34;;;-0.49;78.72
29825;BME280;16713;52.916;12.834;2023-03-03T05:02:56;101659.47;;;-0.30;78.20
29825;BME280;16713;52.916;12.834;2023-03-03T05:05:23;101670.72;;;0.03;78.40
29825;BME280;16713;52.916;12.834;2023-03-03T05:07:49;101671.81;;;0.07;77.88
29825;BME280;16713;52.916;12.834;2023-03-03T05:10:15;101677.22;;;0.07;78.31
29825;BME280;16713;52.916;12.834;2023-03-03T05:12:42;101678.94;;;0.28;76.87
29825;BME280;16713;52.916;12.834;2023-03-03T05:15:09;101676.22;;;0.23;76.96
29825;BME280;16713;52.916;12.834;2023-03-03T05:17:35;101674.78;;;0.06;77.62
29825;BME280;16713;52.916;12.834;2023-03-03T05:20:03;101671.56;;;0.09;77.69
29825;BME280;16713;52.916;12.834;2023-03-03T05:22:30;101675.91;;;0.10;77.43
29825;BME280;16713;52.916;12.834;2023-03-03T05:24:56;101670.69;;;-0.02;78.50
29825;BME280;16713;52.916;12.834;2023-03-03T05:27:23;101670.78;;;0.18;77.81
29825;BME280;16713;52.916;12.834;2023-03-03T05:29:49;101664.81;;;0.06;78.25
29825;BME280;16713;52.916;12.834;2023-03-03T05:32:16;101668.69;;;0.25;77.81
29825;BME280;16713;52.916;12.834;2023-03-03T05:34:42;101666.69;;;0.06;78.13
29825;BME280;16713;52.916;12.834;2023-03-03T05:37:09;101669.47;;;0.21;77.88
29825;BME280;16713;52.916;12.834;2023-03-03T05:39:35;101671.13;;;0.27;78.13
29825;BME280;16713;52.916;12.834;2023-03-03T05:42:01;101665.81;;;0.42;77.54
29825;BME280;16713;52.916;12.834;2023-03-03T05:44:28;101671.72;;;0.39;77.57
29825;BME280;16713;52.916;12.834;2023-03-03T05:46:54;101675.75;;;0.36;77.81
29825;BME280;16713;52.916;12.834;2023-03-03T05:49:22;101685.16;;;0.29;77.52
29825;BME280;16713;52.916;12.834;2023-03-03T05:51:49;101675.75;;;0.36;77.09
29825;BME280;16713;52.916;12.834;2023-03-03T05:54:15;101674.81;;;0.11;78.16
29825;BME280;16713;52.916;12.834;2023-03-03T05:56:41;101670.78;;;0.13;78.14
29825;BME280;16713;52.916;12.834;2023-03-03T05:59:08;101681.59;;;0.13;78.56
29825;BME280;16713;52.916;12.834;2023-03-03T06:01:34;101680.25;;;0.16;78.50
29825;BME280;16713;52.916;12.834;2023-03-03T06:04:00;101673.22;;;0.15;78.78
29825;BME280;16713;52.916;12.834;2023-03-03T06:06:27;101687.88;;;0.29;78.68
29825;BME280;16713;52.916;12.834;2023-03-03T06:08:53;101685.44;;;0.27;77.93
29825;BME280;16713;52.916;12.834;2023-03-03T06:11:22;101676.69;;;0.10;77.96
29825;BME280;16713;52.916;12.834;2023-03-03T06:13:48;101679.09;;;0.02;78.51
29825;BME280;16713;52.916;12.834;2023-03-03T06:16:15;101679.13;;;0.07;78.55
29825;BME280;16713;52.916;12.834;2023-03-03T06:18:41;101686.72;;;0.15;78.75
29825;BME280;16713;52.916;12.834;2023-03-03T06:21:07;101680.69;;;0.03;79.01
29825;BME280;16713;52.916;12.834;2023-03-03T06:23:34;101671.41;;;-0.16;80.08
29825;BME280;16713;52.916;12.834;2023-03-03T06:26:00;101670.88;;;-0.13;79.17
29825;BME280;16713;52.916;12.834;2023-03-03T06:28:26;101684.41;;;-0.08;79.47
29825;BME280;16713;52.916;12.834;2023-03-03T06:30:53;101690.16;;;0.05;79.81
29825;BME280;16713;52.916;12.834;2023-03-03T06:33:20;101686.72;;;0.15;79.82
29825;BME280;16713;52.916;12.834;2023-03-03T06:35:50;101678.50;;;-0.05;79.94
29825;BME280;16713;52.916;12.834;2023-03-03T06:38:16;101682.47;;;-0.18;80.34
29825;BME280;16713;52.916;12.834;2023-03-03T06:40:43;101687.13;;;-0.03;79.97
29825;BME280;16713;52.916;12.834;2023-03-03T06:43:09;101694.81;;;0.20;80.29
29825;BME280;16713;52.916;12.834;2023-03-03T06:45:36;101685.59;;;0.11;79.02
29825;BME280;16713;52.916;12.834;2023-03-03T06:48:02;101701.19;;;0.04;79.71
29825;BME280;16713;52.916;12.834;2023-03-03T06:50:29;101705.59;;;0.20;79.85
29825;BME280;16713;52.916;12.834;2023-03-03T06:53:01;101701.22;;;0.09;79.10
29825;BME280;16713;52.916;12.834;2023-03-03T06:55:30;101706.09;;;0.12;80.13
29825;BME280;16713;52.916;12.834;2023-03-03T06:57:56;101707.13;;;0.06;79.49
29825;BME280;16713;52.916;12.834;2023-03-03T07:00:23;101719.75;;;0.37;79.38
29825;BME280;16713;52.916;12.834;2023-03-03T07:02:52;101721.28;;;0.28;78.89
29825;BME280;16713;52.916;12.834;2023-03-03T07:05:22;101723.50;;;0.31;79.92
29825;BME280;16713;52.916;12.834;2023-03-03T07:07:49;101722.88;;;0.19;79.96
29825;BME280;16713;52.916;12.834;2023-03-03T07:10:26;101723.78;;;0.39;78.89
29825;BME280;16713;52.916;12.834;2023-03-03T07:12:52;101730.53;;;0.37;78.95
29825;BME280;16713;52.916;12.834;2023-03-03T07:15:23;101727.16;;;0.20;78.81
29825;BME280;16713;52.916;12.834;2023-03-03T07:17:52;101732.06;;;0.23;78.88
29825;BME280;16713;52.916;12.834;2023-03-03T07:20:21;101730.59;;;0.47;79.85
29825;BME280;16713;52.916;12.834;2023-03-03T07:22:48;101730.63;;;0.05;79.41
29825;BME280;16713;52.916;12.834;2023-03-03T07:25:48;101738.81;;;0.25;79.32
29825;BME280;16713;52.916;12.834;2023-03-03T07:28:26;101742.75;;;0.54;78.77
29825;BME280;16713;52.916;12.834;2023-03-03T07:30:53;101735.38;;;0.35;78.47
29825;BME280;16713;52.916;12.834;2023-03-03T07:33:27;101738.09;;;0.40;78.42
29825;BME280;16713;52.916;12.834;2023-03-03T07:35:55;101735.81;;;0.22;79.36
29825;BME280;16713;52.916;12.834;2023-03-03T07:38:23;101736.75;;;0.37;79.11
29825;BME280;16713;52.916;12.834;2023-03-03T07:40:54;101745.06;;;0.36;79.39
29825;BME280;16713;52.916;12.834;2023-03-03T07:45:47;101759.78;;;0.55;79.55
29825;BME280;16713;52.916;12.834;2023-03-03T07:48:29;101758.22;;;0.69;79.31
29825;BME280;16713;52.916;12.834;2023-03-03T07:51:00;101754.50;;;0.85;78.78
29825;BME280;16713;52.916;12.834;2023-03-03T07:53:29;101763.34;;;0.71;79.25
29825;BME280;16713;52.916;12.834;2023-03-03T07:56:00;101752.03;;;0.74;78.52
29825;BME280;16713;52.916;12.834;2023-03-03T07:58:29;101754.47;;;0.75;78.53
29825;BME280;16713;52.916;12.834;2023-03-03T08:03:45;101748.34;;;0.95;77.53
29825;BME280;16713;52.916;12.834;2023-03-03T08:11:36;101749.16;;;1.05;77.24
29825;BME280;16713;52.916;12.834;2023-03-03T08:14:08;101750.72;;;0.86;77.09
29825;BME280;16713;52.916;12.834;2023-03-03T08:16:36;101753.72;;;0.95;77.19
29825;BME280;16713;52.916;12.834;2023-03-03T08:19:03;101756.69;;;0.93;77.71
29825;BME280;16713;52.916;12.834;2023-03-03T08:21:30;101747.81;;;1.03;77.57
29825;BME280;16713;52.916;12.834;2023-03-03T08:23:59;101750.66;;;0.76;77.68
29825;BME280;16713;52.916;12.834;2023-03-03T08:26:25;101750.97;;;0.80;77.43
29825;BME280;16713;52.916;12.834;2023-03-03T08:28:52;101755.84;;;0.78;77.97
29825;BME280;16713;52.916;12.834;2023-03-03T08:31:19;101759.66;;;0.92;78.21
29825;BME280;16713;52.916;12.834;2023-03-03T08:34:05;101753.50;;;1.01;77.81
29825;BME280;16713;52.916;12.834;2023-03-03T08:36:32;101748.34;;;1.00;77.74
29825;BME280;16713;52.916;12.834;2023-03-03T08:39:00;101751.59;;;1.07;77.37
29825;BME280;16713;52.916;12.834;2023-03-03T08:41:26;101752.63;;;0.86;77.48
29825;BME280;16713;52.916;12.834;2023-03-03T08:43:53;101749.97;;;1.06;77.40
29825;BME280;16713;52.916;12.834;2023-03-03T08:46:19;101749.97;;;1.06;77.93
29825;BME280;16713;52.916;12.834;2023-03-03T08:48:45;101748.91;;;1.07;77.93
29825;BME280;16713;52.916;12.834;2023-03-03T08:51:12;101754.03;;;1.13;76.79
29825;BME280;16713;52.916;12.834;2023-03-03T08:53:38;101760.34;;;1.34;77.32
29825;BME280;16713;52.916;12.834;2023-03-03T08:56:04;101764.94;;;1.48;75.81
29825;BME280;16713;52.916;12.834;2023-03-03T08:58:32;101762.50;;;1.32;76.48
29825;BME280;16713;52.916;12.834;2023-03-03T09:01:01;101755.91;;;0.98;77.10
29825;BME280;16713;52.916;12.834;2023-03-03T09:03:28;101752.94;;;0.99;77.54
29825;BME280;16713;52.916;12.834;2023-03-03T09:05:55;101747.78;;;0.93;78.03
29825;BME280;16713;52.916;12.834;2023-03-03T09:08:21;101746.09;;;0.77;78.19
29825;BME280;16713;52.916;12.834;2023-03-03T09:10:48;101752.31;;;0.77;79.48
29825;BME280;16713;52.916;12.834;2023-03-03T09:13:15;101747.25;;;0.96;78.55
29825;BME280;16713;52.916;12.834;2023-03-03T09:15:42;101745.91;;;0.93;78.43
29825;BME280;16713;52.916;12.834;2023-03-03T09:18:21;101741.03;;;1.00;78.36
29825;BME280;16713;52.916;12.834;2023-03-03T09:20:52;101742.34;;;0.88;79.09
29825;BME280;16713;52.916;12.834;2023-03-03T09:25:51;101750.56;;;1.23;78.38
29825;BME280;16713;52.916;12.834;2023-03-03T09:28:20;101746.22;;;1.17;78.36
29825;BME280;16713;52.916;12.834;2023-03-03T09:30:49;101750.34;;;1.39;77.63
29825;BME280;16713;52.916;12.834;2023-03-03T09:35:53;101751.94;;;1.40;77.22
29825;BME280;16713;52.916;12.834;2023-03-03T09:38:30;101752.22;;;1.29;78.16
29825;BME280;16713;52.916;12.834;2023-03-03T09:43:42;101746.28;;;1.32;77.90
29825;BME280;16713;52.916;12.834;2023-03-03T09:54:11;101755.22;;;1.52;77.57
29825;BME280;16713;52.916;12.834;2023-03-03T09:56:46;101751.69;;;1.47;77.33
29825;BME280;16713;52.916;12.834;2023-03-03T10:12:26;101756.31;;;1.71;76.43
29825;BME280;16713;52.916;12.834;2023-03-03T10:20:11;101755.75;;;1.64;76.29
29825;BME280;16713;52.916;12.834;2023-03-03T10:36:51;101762.81;;;1.85;77.17
29825;BME280;16713;52.916;12.834;2023-03-03T10:49:13;101768.75;;;2.23;76.13
29825;BME280;16713;52.916;12.834;2023-03-03T11:02:16;101765.53;;;2.16;76.95
29825;BME280;16713;52.916;12.834;2023-03-03T11:10:04;101765.81;;;2.14;76.49
29825;BME280;16713;52.916;12.834;2023-03-03T11:15:18;101758.75;;;2.18;77.29
29825;BME280;16713;52.916;12.834;2023-03-03T11:23:23;101767.94;;;2.32;75.68
29825;BME280;16713;52.916;12.834;2023-03-03T11:26:03;101757.16;;;2.17;76.50
29825;BME280;16713;52.916;12.834;2023-03-03T11:31:23;101751.94;;;2.46;76.11
29825;BME280;16713;52.916;12.834;2023-03-03T11:36:30;101750.06;;;2.46;75.48
29825;BME280;16713;52.916;12.834;2023-03-03T11:39:07;101756.03;;;2.38;75.66
29825;BME280;16713;52.916;12.834;2023-03-03T11:41:36;101762.13;;;2.74;75.29
29825;BME280;16713;52.916;12.834;2023-03-03T11:44:14;101752.41;;;2.68;75.03
29825;BME280;16713;52.916;12.834;2023-03-03T11:46:55;101754.63;;;2.56;75.52
29825;BME280;16713;52.916;12.834;2023-03-03T11:49:25;101752.16;;;2.64;75.39
29825;BME280;16713;52.916;12.834;2023-03-03T11:56:57;101730.19;;;2.71;75.61
29825;BME280;16713;52.916;12.834;2023-03-03T12:01:59;101728.25;;;2.81;75.73
29825;BME280;16713;52.916;12.834;2023-03-03T12:17:24;101710.75;;;3.12;74.26
29825;BME280;16713;52.916;12.834;2023-03-03T12:32:29;101704.47;;;3.17;75.46
29825;BME280;16713;52.916;12.834;2023-03-03T12:35:02;101708.88;;;3.08;75.15
29825;BME280;16713;52.916;12.834;2023-03-03T12:43:11;101702.28;;;3.24;74.54
29825;BME280;16713;52.916;12.834;2023-03-03T12:48:00;101694.31;;;3.37;73.90
29825;BME280;16713;52.916;12.834;2023-03-03T12:55:55;101683.31;;;3.58;74.67
29825;BME280;16713;52.916;12.834;2023-03-03T13:01:29;101680.97;;;3.46;75.21
29825;BME280;16713;52.916;12.834;2023-03-03T13:17:22;101676.72;;;3.35;75.24
29825;BME280;16713;52.916;12.834;2023-03-03T13:19:57;101675.16;;;3.58;74.88
29825;BME280;16713;52.916;12.834;2023-03-03T13:22:38;101661.47;;;3.44;74.89
29825;BME280;16713;52.916;12.834;2023-03-03T13:27:49;101663.72;;;3.66;74.63
29825;BME280;16713;52.916;12.834;2023-03-03T13:32:58;101653.38;;;3.39;75.18
29825;BME280;16713;52.916;12.834;2023-03-03T13:35:43;101653.22;;;3.54;75.23
29825;BME280;16713;52.916;12.834;2023-03-03T13:38:18;101648.88;;;3.58;75.35
29825;BME280;16713;52.916;12.834;2023-03-03T13:40:50;101642.28;;;3.64;74.70
29825;BME280;16713;52.916;12.834;2023-03-03T13:43:29;101644.63;;;3.76;73.83
29825;BME280;16713;52.916;12.834;2023-03-03T13:48:39;101648.16;;;3.76;74.49
29825;BME280;16713;52.916;12.834;2023-03-03T13:56:17;101648.66;;;3.78;74.58
29825;BME280;16713;52.916;12.834;2023-03-03T14:06:14;101632.34;;;3.83;73.89
29825;BME280;16713;52.916;12.834;2023-03-03T14:27:25;101610.72;;;3.73;73.36
29825;BME280;16713;52.916;12.834;2023-03-03T14:29:52;101604.97;;;3.80;73.03
29825;BME280;16713;52.916;12.834;2023-03-03T14:32:20;101608.94;;;3.92;73.82
29825;BME280;16713;52.916;12.834;2023-03-03T14:34:56;101606.28;;;3.87;73.52
29825;BME280;16713;52.916;12.834;2023-03-03T14:37:29;101605.75;;;3.85;73.54
29825;BME280;16713;52.916;12.834;2023-03-03T14:45:34;101592.81;;;4.01;72.20
29825;BME280;16713;52.916;12.834;2023-03-03T14:50:38;101578.78;;;3.94;71.71
29825;BME280;16713;52.916;12.834;2023-03-03T14:55:45;101572.50;;;3.98;72.45
29825;BME280;16713;52.916;12.834;2023-03-03T15:00:50;101575.44;;;4.02;72.13
29825;BME280;16713;52.916;12.834;2023-03-03T15:03:31;101567.41;;;3.92;72.41
29825;BME280;16713;52.916;12.834;2023-03-03T15:06:09;101565.25;;;4.12;72.96
29825;BME280;16713;52.916;12.834;2023-03-03T15:08:38;101559.81;;;4.12;72.52
29825;BME280;16713;52.916;12.834;2023-03-03T15:11:12;101557.94;;;4.13;72.36
29825;BME280;16713;52.916;12.834;2023-03-03T15:13:39;101562.31;;;4.09;72.45
29825;BME280;16713;52.916;12.834;2023-03-03T15:16:10;101550.31;;;3.91;72.79
29825;BME280;16713;52.916;12.834;2023-03-03T15:21:28;101550.88;;;4.12;72.63
29825;BME280;16713;52.916;12.834;2023-03-03T15:42:10;101543.63;;;3.84;72.45
29825;BME280;16713;52.916;12.834;2023-03-03T15:44:54;101537.84;;;3.90;74.03
29825;BME280;16713;52.916;12.834;2023-03-03T15:55:24;101548.97;;;4.12;73.20
29825;BME280;16713;52.916;12.834;2023-03-03T16:03:12;101538.13;;;4.12;73.64
29825;BME280;16713;52.916;12.834;2023-03-03T16:05:45;101540.88;;;4.07;74.01
29825;BME280;16713;52.916;12.834;2023-03-03T16:18:33;101527.25;;;4.12;72.86
29825;BME280;16713;52.916;12.834;2023-03-03T16:23:50;101524.19;;;4.19;73.30
29825;BME280;16713;52.916;12.834;2023-03-03T16:28:50;101524.72;;;4.21;73.55
29825;BME280;16713;52.916;12.834;2023-03-03T16:31:21;101531.38;;;4.28;73.39
29825;BME280;16713;52.916;12.834;2023-03-03T16:34:03;101530.91;;;4.21;73.34
29825;BME280;16713;52.916;12.834;2023-03-03T16:41:53;101520.00;;;4.08;73.50
29825;BME280;16713;52.916;12.834;2023-03-03T16:46:47;101520.00;;;4.26;73.00
29825;BME280;16713;52.916;12.834;2023-03-03T16:54:25;101516.31;;;3.99;73.71
29825;BME280;16713;52.916;12.834;2023-03-03T17:05:23;101512.19;;;4.01;73.36
29825;BME280;16713;52.916;12.834;2023-03-03T17:16:13;101501.47;;;3.91;73.92
29825;BME280;16713;52.916;12.834;2023-03-03T17:19:00;101501.47;;;3.91;75.07
29825;BME280;16713;52.916;12.834;2023-03-03T17:26:58;101499.88;;;4.09;73.61
29825;BME280;16713;52.916;12.834;2023-03-03T17:39:37;101525.00;;;4.38;72.44
29825;BME280;16713;52.916;12.834;2023-03-03T17:57:46;101521.47;;;4.37;71.01
29825;BME280;16713;52.916;12.834;2023-03-03T18:16:06;101507.72;;;4.10;70.79
29825;BME280;16713;52.916;12.834;2023-03-03T18:21:14;101510.00;;;4.03;71.01
29825;BME280;16713;52.916;12.834;2023-03-03T18:23:42;101514.44;;;3.94;71.44
29825;BME280;16713;52.916;12.834;2023-03-03T18:29:08;101505.88;;;3.87;70.69
29825;BME280;16713;52.916;12.834;2023-03-03T18:31:49;101499.09;;;3.85;71.54
29825;BME280;16713;52.916;12.834;2023-03-03T18:34:38;101497.44;;;3.65;71.65
29825;BME280;16713;52.916;12.834;2023-03-03T18:42:36;101494.47;;;3.67;72.30
29825;BME280;16713;52.916;12.834;2023-03-03T18:53:39;101488.50;;;3.65;71.98
29825;BME280;16713;52.916;12.834;2023-03-03T18:55:47;101484.50;;;3.57;72.12
29825;BME280;16713;52.916;12.834;2023-03-03T19:01:00;101493.41;;;3.63;72.17
29825;BME280;16713;52.916;12.834;2023-03-03T19:05:54;101495.94;;;3.54;72.12
29825;BME280;16713;52.916;12.834;2023-03-03T19:08:24;101493.69;;;3.61;71.74
29825;BME280;16713;52.916;12.834;2023-03-03T19:11:01;101481.75;;;3.62;71.73
29825;BME280;16713;52.916;12.834;2023-03-03T19:16:04;101469.50;;;3.41;73.47
29825;BME280;16713;52.916;12.834;2023-03-03T19:18:56;101469.25;;;3.42;73.21
29825;BME280;16713;52.916;12.834;2023-03-03T19:21:21;101473.59;;;3.62;73.03
29825;BME280;16713;52.916;12.834;2023-03-03T19:28:56;101457.28;;;3.43;73.56
29825;BME280;16713;52.916;12.834;2023-03-03T19:34:15;101472.81;;;3.38;73.55